Time;durP1;ratioP1;P1;durP2;ratioP2;P2;SDS_P1;SDS_P2;PMS_P1;PMS_P2;Temp;Humidity;BMP_temperature;BMP_pressure;BME280_temperature;BME280_humidity;BME280_pressure;Samples;Min_cycle;Max_cycle;Signal;HPM_P1;HPM_P2
2022/07/18 00:01:59;;;;;;;0.90;0.20;;;;;;;;;;5093113;28;20055;-70
2022/07/18 00:04:26;;;;;;;1.20;0.50;;;;;;;;;;5094424;28;20440;-71
2022/07/18 00:06:54;;;;;;;0.47;0.40;;;;;;;;;;5094848;28;20425;-70
2022/07/18 00:09:23;;;;;;;0.95;0.30;;;;;;;;;;5061417;28;20032;-71
2022/07/18 00:11:51;;;;;;;1.15;0.45;;;;;;;;;;5095523;28;20081;-71
2022/07/18 00:14:18;;;;;;;0.20;0.20;;;;;;;;;;5094854;28;20031;-71
2022/07/18 00:16:43;;;;;;;0.80;0.32;;;;;;;;;;5095029;28;20077;-70
2022/07/18 00:19:09;;;;;;;0.98;0.63;;;;;;;;;;5094878;28;20032;-71
2022/07/18 00:21:34;;;;;;;0.77;0.60;;;;;;;;;;5095697;28;20036;-71
2022/07/18 00:24:04;;;;;;;1.30;0.70;;;;;;;;;;5095682;28;20111;-71
2022/07/18 00:26:30;;;;;;;0.40;0.38;;;;;;;;;;5094900;28;20028;-70
2022/07/18 00:28:57;;;;;;;1.20;0.68;;;;;;;;;;5087433;28;20062;-71
2022/07/18 00:31:23;;;;;;;1.27;0.30;;;;;;;;;;5097715;28;20437;-70
2022/07/18 00:33:48;;;;;;;2.25;0.60;;;;;;;;;;5096862;28;20030;-70
2022/07/18 00:36:14;;;;;;;2.40;0.73;;;;;;;;;;5075000;28;20119;-71
2022/07/18 00:38:44;;;;;;;11.27;0.82;;;;;;;;;;5095380;28;20429;-71
2022/07/18 00:41:15;;;;;;;0.45;0.40;;;;;;;;;;5094579;28;20030;-71
2022/07/18 00:43:41;;;;;;;0.60;0.50;;;;;;;;;;5094498;28;20028;-71
2022/07/18 00:46:07;;;;;;;0.55;0.50;;;;;;;;;;5095300;28;20031;-70
2022/07/18 00:48:35;;;;;;;1.95;0.68;;;;;;;;;;5094690;28;20035;-70
2022/07/18 00:51:00;;;;;;;0.40;0.40;;;;;;;;;;5088933;28;20038;-70
2022/07/18 00:53:26;;;;;;;0.57;0.57;;;;;;;;;;5095192;28;20031;-71
2022/07/18 00:55:51;;;;;;;2.38;0.57;;;;;;;;;;5094251;28;20039;-71
2022/07/18 00:58:17;;;;;;;0.75;0.60;;;;;;;;;;5078562;28;20057;-72
2022/07/18 01:03:27;;;;;;;1.95;0.43;;;;;;;;;;5095515;28;20093;-70
2022/07/18 01:05:55;;;;;;;0.95;0.50;;;;;;;;;;5075407;28;20036;-71
2022/07/18 01:08:20;;;;;;;0.93;0.40;;;;;;;;;;5093609;28;20024;-72
2022/07/18 01:10:48;;;;;;;0.47;0.30;;;;;;;;;;5091501;28;20036;-72
2022/07/18 01:13:13;;;;;;;0.68;0.60;;;;;;;;;;5085733;28;20028;-72
2022/07/18 01:15:41;;;;;;;5.65;0.77;;;;;;;;;;5079884;28;20021;-72
2022/07/18 01:18:09;;;;;;;0.10;0.10;;;;;;;;;;5105794;28;20024;-70
2022/07/18 01:20:39;;;;;;;1.00;0.60;;;;;;;;;;5093286;28;20028;-71
2022/07/18 01:23:05;;;;;;;0.82;0.82;;;;;;;;;;5075169;28;20040;-71
2022/07/18 01:25:30;;;;;;;0.75;0.45;;;;;;;;;;5071004;28;20028;-71
2022/07/18 01:27:56;;;;;;;0.50;0.40;;;;;;;;;;5095084;28;20112;-71
2022/07/18 01:30:42;;;;;;;0.98;0.40;;;;;;;;;;5092764;28;20028;-70
2022/07/18 01:33:09;;;;;;;0.80;0.50;;;;;;;;;;5098949;28;20093;-71
2022/07/18 01:35:35;;;;;;;0.30;0.30;;;;;;;;;;5092662;28;20393;-69
2022/07/18 01:38:04;;;;;;;0.85;0.57;;;;;;;;;;5093643;28;20023;-70
2022/07/18 01:40:30;;;;;;;2.38;0.98;;;;;;;;;;5092969;28;20028;-70
2022/07/18 01:42:58;;;;;;;1.02;0.43;;;;;;;;;;5093476;28;20036;-71
2022/07/18 01:45:24;;;;;;;1.25;0.40;;;;;;;;;;5093954;28;20028;-71
2022/07/18 01:47:50;;;;;;;0.45;0.30;;;;;;;;;;5093897;28;20118;-71
2022/07/18 01:50:15;;;;;;;0.57;0.35;;;;;;;;;;5092733;28;20103;-70
2022/07/18 01:52:41;;;;;;;1.10;0.73;;;;;;;;;;5094122;28;20054;-71
2022/07/18 01:55:08;;;;;;;0.90;0.52;;;;;;;;;;5092547;28;20047;-71
2022/07/18 01:57:34;;;;;;;0.65;0.40;;;;;;;;;;5093262;28;20379;-71
2022/07/18 01:59:59;;;;;;;1.10;0.80;;;;;;;;;;5092447;28;20024;-71
2022/07/18 02:02:29;;;;;;;1.65;0.40;;;;;;;;;;5091224;28;20128;-71
2022/07/18 02:05:00;;;;;;;0.82;0.75;;;;;;;;;;5092107;28;20111;-71
2022/07/18 02:07:31;;;;;;;0.55;0.35;;;;;;;;;;5098015;28;20390;-70
2022/07/18 02:09:59;;;;;;;0.93;0.40;;;;;;;;;;5094235;28;20039;-70
2022/07/18 02:12:25;;;;;;;1.20;0.65;;;;;;;;;;5092206;28;20113;-70
2022/07/18 02:14:50;;;;;;;1.33;0.30;;;;;;;;;;5075631;28;20425;-70
2022/07/18 02:17:16;;;;;;;1.63;0.77;;;;;;;;;;5092765;28;20459;-70
2022/07/18 02:19:41;;;;;;;3.05;0.47;;;;;;;;;;5094353;28;20028;-70
2022/07/18 02:22:09;;;;;;;0.60;0.40;;;;;;;;;;5092760;28;20066;-70
2022/07/18 02:24:35;;;;;;;0.55;0.40;;;;;;;;;;5093963;28;20043;-71
2022/07/18 02:27:00;;;;;;;0.25;0.25;;;;;;;;;;5093025;28;20032;-71
2022/07/18 02:29:25;;;;;;;0.85;0.43;;;;;;;;;;5075476;28;20032;-71
2022/07/18 02:31:51;;;;;;;2.47;1.45;;;;;;;;;;5086739;28;20477;-70
2022/07/18 02:34:18;;;;;;;0.30;0.30;;;;;;;;;;5094195;28;20016;-71
2022/07/18 02:36:44;;;;;;;0.52;0.47;;;;;;;;;;5093844;28;20016;-71
2022/07/18 02:39:10;;;;;;;1.10;0.43;;;;;;;;;;5094176;28;20042;-71
2022/07/18 02:41:35;;;;;;;1.10;1.00;;;;;;;;;;5092504;28;20091;-71
2022/07/18 02:44:01;;;;;;;0.40;0.40;;;;;;;;;;5093634;28;20047;-71
2022/07/18 02:46:28;;;;;;;0.65;0.17;;;;;;;;;;5093042;28;20020;-71
2022/07/18 02:48:56;;;;;;;1.05;0.50;;;;;;;;;;5091554;28;20103;-71
2022/07/18 02:51:22;;;;;;;0.63;0.50;;;;;;;;;;5093314;28;20402;-71
2022/07/18 02:53:49;;;;;;;0.50;0.30;;;;;;;;;;5093568;28;20116;-71
2022/07/18 02:56:18;;;;;;;0.20;0.20;;;;;;;;;;5093373;28;20024;-71
2022/07/18 02:58:45;;;;;;;0.55;0.47;;;;;;;;;;5092479;28;20016;-71
2022/07/18 03:01:11;;;;;;;0.40;0.40;;;;;;;;;;5093936;28;20024;-70
2022/07/18 03:03:37;;;;;;;1.35;0.43;;;;;;;;;;5092405;28;20375;-70
2022/07/18 03:06:05;;;;;;;1.17;0.45;;;;;;;;;;5095147;28;20027;-70
2022/07/18 03:08:30;;;;;;;0.55;0.55;;;;;;;;;;5098071;28;20028;-70
2022/07/18 03:10:58;;;;;;;0.25;0.20;;;;;;;;;;5097067;28;20042;-70
2022/07/18 03:13:25;;;;;;;0.22;0.22;;;;;;;;;;5096145;28;20056;-71
2022/07/18 03:15:51;;;;;;;0.63;0.50;;;;;;;;;;5093024;28;20031;-70
2022/07/18 03:18:17;;;;;;;0.60;0.30;;;;;;;;;;5097535;28;20034;-71
2022/07/18 03:20:42;;;;;;;0.52;0.40;;;;;;;;;;5096662;28;20016;-70
2022/07/18 03:23:08;;;;;;;0.20;0.20;;;;;;;;;;5096666;28;20456;-71
2022/07/18 03:25:34;;;;;;;1.40;0.90;;;;;;;;;;5088147;28;20107;-71
2022/07/18 03:28:00;;;;;;;0.88;0.63;;;;;;;;;;5096693;28;20448;-71
2022/07/18 03:30:25;;;;;;;0.93;0.70;;;;;;;;;;5095423;28;20111;-71
2022/07/18 03:32:50;;;;;;;1.02;0.57;;;;;;;;;;5096162;28;20024;-71
2022/07/18 03:35:16;;;;;;;0.60;0.40;;;;;;;;;;5097297;28;20085;-71
2022/07/18 03:37:44;;;;;;;0.68;0.60;;;;;;;;;;5095325;28;20046;-71
2022/07/18 03:40:13;;;;;;;0.73;0.73;;;;;;;;;;5078228;28;20043;-71
2022/07/18 03:42:39;;;;;;;0.55;0.50;;;;;;;;;;5092767;28;20024;-71
2022/07/18 03:45:06;;;;;;;0.20;0.20;;;;;;;;;;5095730;28;20032;-71
2022/07/18 03:47:31;;;;;;;0.98;0.50;;;;;;;;;;5097133;28;20028;-71
2022/07/18 03:49:59;;;;;;;1.65;0.68;;;;;;;;;;5096604;28;20024;-71
2022/07/18 03:52:24;;;;;;;0.82;0.55;;;;;;;;;;5095711;28;20088;-71
2022/07/18 03:54:54;;;;;;;4.22;0.38;;;;;;;;;;5095516;28;20080;-71
2022/07/18 03:57:20;;;;;;;0.80;0.50;;;;;;;;;;5094487;28;20113;-71
2022/07/18 03:59:45;;;;;;;0.85;0.52;;;;;;;;;;5095263;28;20054;-71
2022/07/18 04:02:10;;;;;;;0.57;0.30;;;;;;;;;;5094630;28;20487;-71
2022/07/18 04:04:36;;;;;;;0.88;0.50;;;;;;;;;;5083633;28;20116;-71
2022/07/18 04:07:01;;;;;;;2.55;0.77;;;;;;;;;;5095977;28;20026;-71
2022/07/18 04:09:29;;;;;;;2.22;0.82;;;;;;;;;;5094265;28;20028;-71
2022/07/18 04:11:55;;;;;;;1.10;0.68;;;;;;;;;;5095962;28;20039;-72
2022/07/18 04:14:23;;;;;;;1.85;0.43;;;;;;;;;;5093671;28;20044;-71
2022/07/18 04:16:48;;;;;;;2.22;0.35;;;;;;;;;;5095027;28;20049;-71
2022/07/18 04:19:16;;;;;;;0.85;0.40;;;;;;;;;;5094808;28;20049;-71
2022/07/18 04:21:42;;;;;;;0.80;0.70;;;;;;;;;;5091720;28;20085;-71
2022/07/18 04:24:08;;;;;;;0.10;0.10;;;;;;;;;;5096706;28;20027;-71
2022/07/18 04:26:33;;;;;;;0.43;0.30;;;;;;;;;;5093933;28;20016;-71
2022/07/18 04:28:58;;;;;;;0.77;0.63;;;;;;;;;;5095330;28;20034;-71
2022/07/18 04:31:24;;;;;;;0.30;0.28;;;;;;;;;;5099560;28;20035;-71
2022/07/18 04:33:49;;;;;;;0.57;0.50;;;;;;;;;;5104558;28;20339;-70
2022/07/18 04:36:14;;;;;;;0.50;0.50;;;;;;;;;;5094528;28;20036;-70
2022/07/18 04:38:42;;;;;;;0.80;0.60;;;;;;;;;;5096440;28;20020;-71
2022/07/18 04:41:08;;;;;;;0.95;0.40;;;;;;;;;;5094591;28;20073;-71
2022/07/18 04:43:35;;;;;;;2.22;0.98;;;;;;;;;;5093493;28;20028;-71
2022/07/18 04:46:01;;;;;;;1.00;0.80;;;;;;;;;;5094230;28;20082;-71
2022/07/18 04:48:26;;;;;;;0.20;0.20;;;;;;;;;;5095198;28;20047;-71
2022/07/18 04:50:54;;;;;;;0.43;0.43;;;;;;;;;;5095508;28;20024;-71
2022/07/18 04:53:22;;;;;;;1.17;0.40;;;;;;;;;;5090610;28;20032;-71
2022/07/18 04:55:47;;;;;;;0.50;0.40;;;;;;;;;;5094751;28;20072;-71
2022/07/18 04:58:13;;;;;;;0.50;0.40;;;;;;;;;;5094586;28;20408;-71
2022/07/18 05:00:40;;;;;;;0.50;0.50;;;;;;;;;;5093005;28;20024;-71
2022/07/18 05:03:06;;;;;;;0.68;0.45;;;;;;;;;;5092479;28;20448;-71
2022/07/18 05:05:31;;;;;;;0.75;0.57;;;;;;;;;;5094528;28;20024;-71
2022/07/18 05:07:57;;;;;;;1.33;0.77;;;;;;;;;;5095245;28;20428;-71
2022/07/18 05:10:25;;;;;;;2.13;0.98;;;;;;;;;;5094970;28;20433;-72
2022/07/18 05:12:56;;;;;;;0.40;0.40;;;;;;;;;;5095141;28;20039;-72
2022/07/18 05:15:23;;;;;;;1.92;0.70;;;;;;;;;;5090946;28;20099;-72
2022/07/18 05:17:53;;;;;;;2.70;0.57;;;;;;;;;;5092846;28;20119;-72
2022/07/18 05:20:21;;;;;;;1.63;0.95;;;;;;;;;;5095508;28;20028;-72
2022/07/18 05:22:47;;;;;;;1.25;0.73;;;;;;;;;;5095203;28;20020;-72
2022/07/18 05:25:12;;;;;;;2.45;0.40;;;;;;;;;;5095369;28;20027;-72
2022/07/18 05:27:38;;;;;;;0.80;0.73;;;;;;;;;;5086532;28;20028;-72
2022/07/18 05:30:10;;;;;;;0.47;0.30;;;;;;;;;;5094009;28;20151;-72
2022/07/18 05:32:36;;;;;;;0.60;0.40;;;;;;;;;;5095307;28;20390;-72
2022/07/18 05:35:01;;;;;;;7.68;0.82;;;;;;;;;;5094935;28;20116;-72
2022/07/18 05:37:27;;;;;;;0.45;0.30;;;;;;;;;;5090645;28;20318;-72
2022/07/18 05:39:52;;;;;;;0.90;0.63;;;;;;;;;;5093788;28;20066;-72
2022/07/18 05:42:18;;;;;;;7.53;0.50;;;;;;;;;;5093172;28;20048;-72
2022/07/18 05:44:44;;;;;;;2.30;0.60;;;;;;;;;;5093332;28;20032;-72
2022/07/18 05:47:14;;;;;;;1.10;0.50;;;;;;;;;;5094207;28;20028;-72
2022/07/18 05:49:42;;;;;;;3.33;0.65;;;;;;;;;;5094568;28;20364;-72
2022/07/18 05:52:10;;;;;;;0.45;0.32;;;;;;;;;;5090216;28;20025;-72
2022/07/18 05:54:37;;;;;;;5.65;0.75;;;;;;;;;;5087111;28;20020;-72
2022/07/18 05:57:03;;;;;;;0.63;0.60;;;;;;;;;;5093232;28;20057;-72
2022/07/18 05:59:30;;;;;;;0.68;0.55;;;;;;;;;;5092604;28;20122;-72
2022/07/18 06:01:56;;;;;;;0.40;0.40;;;;;;;;;;5093458;28;20047;-72
2022/07/18 06:04:21;;;;;;;2.00;0.80;;;;;;;;;;5093786;28;20024;-72
2022/07/18 06:06:48;;;;;;;1.38;0.40;;;;;;;;;;5094463;28;20059;-72
2022/07/18 06:09:13;;;;;;;16.02;2.30;;;;;;;;;;5093051;28;20091;-72
2022/07/18 06:11:39;;;;;;;1.95;0.43;;;;;;;;;;5093502;28;20103;-72
2022/07/18 06:14:04;;;;;;;0.75;0.38;;;;;;;;;;5088125;28;20070;-72
2022/07/18 06:16:32;;;;;;;0.73;0.50;;;;;;;;;;5093401;28;20024;-72
2022/07/18 06:18:58;;;;;;;1.17;0.65;;;;;;;;;;5093882;28;20103;-72
2022/07/18 06:21:26;;;;;;;0.45;0.22;;;;;;;;;;5092734;28;20107;-73
2022/07/18 06:23:51;;;;;;;1.25;0.57;;;;;;;;;;5091627;28;20337;-73
2022/07/18 06:26:19;;;;;;;1.20;0.75;;;;;;;;;;5094673;28;20031;-71
2022/07/18 06:28:44;;;;;;;0.38;0.28;;;;;;;;;;5094764;28;20028;-72
2022/07/18 06:31:11;;;;;;;1.55;0.60;;;;;;;;;;5093698;28;20032;-73
2022/07/18 06:33:39;;;;;;;0.60;0.50;;;;;;;;;;5091359;28;20069;-72
2022/07/18 06:36:06;;;;;;;3.70;0.80;;;;;;;;;;5089807;28;20743;-72
2022/07/18 06:38:32;;;;;;;1.35;0.50;;;;;;;;;;5072713;28;20446;-71
2022/07/18 06:40:57;;;;;;;0.10;0.10;;;;;;;;;;5096064;28;20032;-71
2022/07/18 06:43:25;;;;;;;1.48;0.70;;;;;;;;;;5097257;28;20027;-72
2022/07/18 06:45:52;;;;;;;0.82;0.45;;;;;;;;;;5096853;28;20433;-71
2022/07/18 06:48:17;;;;;;;0.45;0.45;;;;;;;;;;5097556;28;20035;-72
2022/07/18 06:50:43;;;;;;;0.85;0.52;;;;;;;;;;5096914;28;20028;-71
2022/07/18 06:53:13;;;;;;;1.10;0.47;;;;;;;;;;5096757;28;20025;-71
2022/07/18 06:55:38;;;;;;;1.08;0.45;;;;;;;;;;5096552;28;20035;-71
2022/07/18 06:58:04;;;;;;;8.15;0.52;;;;;;;;;;5091587;28;20028;-72
2022/07/18 07:00:29;;;;;;;0.22;0.10;;;;;;;;;;5097069;28;20441;-73
2022/07/18 07:02:54;;;;;;;0.88;0.40;;;;;;;;;;5097835;28;20111;-72
2022/07/18 07:05:21;;;;;;;0.88;0.60;;;;;;;;;;5094838;28;20052;-72
2022/07/18 07:07:47;;;;;;;4.20;0.35;;;;;;;;;;5095848;28;20024;-72
2022/07/18 07:10:13;;;;;;;0.35;0.20;;;;;;;;;;5096709;28;20456;-81
2022/07/18 07:12:43;;;;;;;0.25;0.22;;;;;;;;;;5095619;28;20036;-82
2022/07/18 07:15:09;;;;;;;0.25;0.25;;;;;;;;;;5097355;28;20413;-81
2022/07/18 07:17:36;;;;;;;0.50;0.50;;;;;;;;;;5096753;28;20035;-83
2022/07/18 07:20:06;;;;;;;0.38;0.35;;;;;;;;;;5096146;28;20039;-82
2022/07/18 07:22:41;;;;;;;0.30;0.30;;;;;;;;;;5110197;28;20051;-78
2022/07/18 07:25:10;;;;;;;2.97;0.43;;;;;;;;;;5094975;28;20027;-83
2022/07/18 07:27:35;;;;;;;0.25;0.20;;;;;;;;;;5098081;28;20036;-83
2022/07/18 07:30:06;;;;;;;0.68;0.52;;;;;;;;;;5102682;28;20039;-82
2022/07/18 07:32:38;;;;;;;0.20;0.20;;;;;;;;;;5084186;28;20024;-83
2022/07/18 07:35:06;;;;;;;0.13;0.13;;;;;;;;;;5101282;28;20024;-83
2022/07/18 07:37:32;;;;;;;0.70;0.45;;;;;;;;;;5096383;28;20028;-82
2022/07/18 07:40:00;;;;;;;0.47;0.40;;;;;;;;;;5095825;28;20032;-82
2022/07/18 07:42:25;;;;;;;1.33;0.45;;;;;;;;;;5095272;28;20041;-81
2022/07/18 07:44:56;;;;;;;0.20;0.20;;;;;;;;;;5096350;28;20155;-83
2022/07/18 07:47:24;;;;;;;0.50;0.40;;;;;;;;;;5095529;28;20111;-82
2022/07/18 07:49:49;;;;;;;1.02;0.93;;;;;;;;;;5080185;28;20412;-84
2022/07/18 07:52:17;;;;;;;0.20;0.20;;;;;;;;;;5093886;28;20047;-83
2022/07/18 07:54:44;;;;;;;0.45;0.45;;;;;;;;;;5096883;28;20016;-82
2022/07/18 07:57:10;;;;;;;0.80;0.80;;;;;;;;;;5095728;28;20066;-84
2022/07/18 07:59:35;;;;;;;0.22;0.20;;;;;;;;;;5095041;28;20052;-84
2022/07/18 08:02:01;;;;;;;3.17;0.32;;;;;;;;;;5094625;28;20052;-84
2022/07/18 08:04:26;;;;;;;1.10;0.30;;;;;;;;;;5076790;28;20044;-85
2022/07/18 08:06:51;;;;;;;0.28;0.28;;;;;;;;;;5097143;28;20437;-85
2022/07/18 08:09:19;;;;;;;0.52;0.52;;;;;;;;;;5095329;28;20028;-89
2022/07/18 08:11:44;;;;;;;1.27;0.80;;;;;;;;;;5096765;28;20315;-89
2022/07/18 08:14:10;;;;;;;0.38;0.30;;;;;;;;;;5095390;28;20099;-87
2022/07/18 08:16:35;;;;;;;0.20;0.20;;;;;;;;;;5095671;28;20035;-92
2022/07/18 08:19:03;;;;;;;0.63;0.30;;;;;;;;;;5088089;28;20036;-89
2022/07/18 08:21:31;;;;;;;0.57;0.50;;;;;;;;;;5075945;28;20044;-90
2022/07/18 08:24:04;;;;;;;1.05;0.85;;;;;;;;;;5082877;28;20031;-89
2022/07/18 08:26:29;;;;;;;0.15;0.15;;;;;;;;;;5081111;28;20024;-85
2022/07/18 08:29:03;;;;;;;0.20;0.17;;;;;;;;;;5092578;28;20089;-88
2022/07/18 08:31:54;;;;;;;0.65;0.38;;;;;;;;;;5079109;28;20055;-83
2022/07/18 08:34:26;;;;;;;0.20;0.20;;;;;;;;;;5081988;28;20066;-86
2022/07/18 08:36:54;;;;;;;1.10;0.65;;;;;;;;;;5094106;28;20354;-85
2022/07/18 08:39:22;;;;;;;0.50;0.20;;;;;;;;;;5090288;28;20338;-86
2022/07/18 08:41:52;;;;;;;0.30;0.30;;;;;;;;;;5079062;28;20487;-85
2022/07/18 08:44:19;;;;;;;0.35;0.35;;;;;;;;;;5095347;28;20107;-84
2022/07/18 08:46:49;;;;;;;0.13;0.13;;;;;;;;;;5095341;28;20036;-85
2022/07/18 08:49:18;;;;;;;0.25;0.20;;;;;;;;;;5094224;28;20028;-84
2022/07/18 08:51:45;;;;;;;0.25;0.25;;;;;;;;;;5096185;28;20097;-83
2022/07/18 08:54:11;;;;;;;0.20;0.20;;;;;;;;;;5095673;28;20042;-85
2022/07/18 08:56:36;;;;;;;0.47;0.35;;;;;;;;;;5096655;28;20489;-86
2022/07/18 08:59:03;;;;;;;0.30;0.30;;;;;;;;;;5095284;28;20028;-88
2022/07/18 09:01:31;;;;;;;0.40;0.40;;;;;;;;;;5096891;28;20368;-90
2022/07/18 09:04:16;;;;;;;0.40;0.35;;;;;;;;;;5094857;28;20039;-84
2022/07/18 09:06:46;;;;;;;0.30;0.30;;;;;;;;;;5096290;28;20024;-84
2022/07/18 09:09:13;;;;;;;0.67;0.50;;;;;;;;;;5094898;28;20032;-87
2022/07/18 09:11:53;;;;;;;0.60;0.43;;;;;;;;;;5111107;28;20058;-84
2022/07/18 09:14:30;;;;;;;0.30;0.30;;;;;;;;;;5115498;28;20012;-85
2022/07/18 09:17:15;;;;;;;0.30;0.30;;;;;;;;;;5111030;28;20024;-82
2022/07/18 09:19:57;;;;;;;0.20;0.20;;;;;;;;;;5075388;28;20028;-85
2022/07/18 09:22:33;;;;;;;1.85;0.40;;;;;;;;;;5075097;28;20033;-86
2022/07/18 09:25:13;;;;;;;3.42;1.25;;;;;;;;;;5095020;28;20034;-89
2022/07/18 09:27:43;;;;;;;0.43;0.40;;;;;;;;;;5094678;28;20338;-87
2022/07/18 09:30:32;;;;;;;0.40;0.40;;;;;;;;;;5094324;28;20055;-86
2022/07/18 09:33:15;;;;;;;0.38;0.35;;;;;;;;;;5094081;28;20032;-83
2022/07/18 09:35:47;;;;;;;0.20;0.20;;;;;;;;;;5094993;28;20042;-86
2022/07/18 09:38:18;;;;;;;0.30;0.30;;;;;;;;;;5094790;28;20155;-84
2022/07/18 09:40:45;;;;;;;0.32;0.32;;;;;;;;;;5092793;28;20042;-87
2022/07/18 09:43:15;;;;;;;0.40;0.40;;;;;;;;;;5089191;28;20111;-84
2022/07/18 09:45:43;;;;;;;0.10;0.10;;;;;;;;;;5092775;28;20040;-85
2022/07/18 09:48:10;;;;;;;0.50;0.50;;;;;;;;;;5091789;28;20066;-86
2022/07/18 09:50:43;;;;;;;0.20;0.20;;;;;;;;;;5093033;28;20040;-85
2022/07/18 09:53:34;;;;;;;0.30;0.30;;;;;;;;;;5092526;28;20035;-85
2022/07/18 09:56:25;;;;;;;;;;;;;;;;;;5088005;28;20028;-90
2022/07/18 09:58:53;;;;;;;0.20;0.20;;;;;;;;;;5032702;28;19924;-84
2022/07/18 10:01:25;;;;;;;0.50;0.50;;;;;;;;;;5032846;28;20071;-85
2022/07/18 10:03:53;;;;;;;0.77;0.52;;;;;;;;;;5030268;28;20390;-84
2022/07/18 10:06:19;;;;;;;0.20;0.20;;;;;;;;;;5023216;28;20169;-86
2022/07/18 10:08:46;;;;;;;0.28;0.28;;;;;;;;;;5027101;28;20032;-85
2022/07/18 10:11:13;;;;;;;0.20;0.20;;;;;;;;;;5007502;28;20399;-87
2022/07/18 10:13:44;;;;;;;1.83;0.60;;;;;;;;;;5032421;28;20049;-85
2022/07/18 10:16:09;;;;;;;;;;;;;;;;;;5036068;28;20060;-85
2022/07/18 10:18:36;;;;;;;0.43;0.43;;;;;;;;;;5046047;28;19967;-85
2022/07/18 10:21:06;;;;;;;0.73;0.60;;;;;;;;;;5057211;28;20343;-90
2022/07/18 10:23:53;;;;;;;0.47;0.38;;;;;;;;;;5066420;28;20040;-85
2022/07/18 10:26:24;;;;;;;0.80;0.50;;;;;;;;;;5098889;28;20051;-87
2022/07/18 10:28:55;;;;;;;0.40;0.40;;;;;;;;;;5098230;28;20020;-85
2022/07/18 10:31:23;;;;;;;;;;;;;;;;;;5098736;28;20024;-84
2022/07/18 10:33:49;;;;;;;0.50;0.50;;;;;;;;;;5077445;28;20019;-84
2022/07/18 10:36:22;;;;;;;0.30;0.30;;;;;;;;;;5077949;28;20082;-86
2022/07/18 10:39:06;;;;;;;0.20;0.20;;;;;;;;;;5084573;28;20016;-85
2022/07/18 10:41:53;;;;;;;1.50;0.55;;;;;;;;;;5099054;28;20398;-85
2022/07/18 10:47:02;;;;;;;1.45;0.50;;;;;;;;;;5097953;28;20416;-91
2022/07/18 10:49:46;;;;;;;1.45;0.40;;;;;;;;;;5078369;28;20020;-84
2022/07/18 10:52:28;;;;;;;0.47;0.47;;;;;;;;;;5078403;28;20091;-85
2022/07/18 10:55:02;;;;;;;4.88;1.38;;;;;;;;;;5095306;28;20363;-87
2022/07/18 10:57:41;;;;;;;0.60;0.60;;;;;;;;;;5098521;28;20332;-84
2022/07/18 11:00:13;;;;;;;0.30;0.30;;;;;;;;;;5097524;28;20023;-83
2022/07/18 11:03:00;;;;;;;0.30;0.30;;;;;;;;;;5087880;28;20028;-84
2022/07/18 11:05:46;;;;;;;0.28;0.28;;;;;;;;;;5093125;28;20036;-86
2022/07/18 11:08:14;;;;;;;1.15;0.65;;;;;;;;;;5093296;28;20325;-82
2022/07/18 11:10:48;;;;;;;0.40;0.40;;;;;;;;;;5097443;28;20024;-85
2022/07/18 11:13:43;;;;;;;1.13;0.65;;;;;;;;;;5089246;28;20028;-89
2022/07/18 11:16:19;;;;;;;0.40;0.40;;;;;;;;;;5089699;28;20032;-92
2022/07/18 11:18:49;;;;;;;0.35;0.35;;;;;;;;;;5089114;28;20059;-94
2022/07/18 11:21:36;;;;;;;0.43;0.43;;;;;;;;;;5097680;28;20032;-89
2022/07/18 11:24:07;;;;;;;0.82;0.43;;;;;;;;;;5086311;28;20036;-94
2022/07/18 11:29:52;;;;;;;0.30;0.30;;;;;;;;;;5052885;28;20131;-92
2022/07/18 11:32:28;;;;;;;0.28;0.28;;;;;;;;;;5050453;28;20054;-83
2022/07/18 11:34:57;;;;;;;0.40;0.38;;;;;;;;;;5220600;22;20057;-77
2022/07/18 11:37:49;;;;;;;0.68;0.68;;;;;;;;;;5075107;28;20028;-85
2022/07/18 11:40:15;;;;;;;0.20;0.20;;;;;;;;;;5058658;28;20043;-93
2022/07/18 11:42:41;;;;;;;0.30;0.30;;;;;;;;;;5060922;28;20103;-86
2022/07/18 11:45:16;;;;;;;0.52;0.40;;;;;;;;;;5056641;28;20382;-90
2022/07/18 11:47:52;;;;;;;0.82;0.32;;;;;;;;;;5060353;28;20040;-92
2022/07/18 11:50:38;;;;;;;0.30;0.30;;;;;;;;;;5061354;28;20048;-91
2022/07/18 11:53:05;;;;;;;0.60;0.60;;;;;;;;;;5036130;28;20522;-91
2022/07/18 11:55:37;;;;;;;1.00;0.40;;;;;;;;;;5035434;28;20041;-92
2022/07/18 11:58:12;;;;;;;0.38;0.38;;;;;;;;;;5020312;28;20398;-91
2022/07/18 12:00:38;;;;;;;0.30;0.30;;;;;;;;;;5023629;28;20072;-90
2022/07/18 12:03:11;;;;;;;0.60;0.60;;;;;;;;;;5023719;28;20069;-82
2022/07/18 12:05:48;;;;;;;0.40;0.40;;;;;;;;;;5027046;28;20088;-94
2022/07/18 12:08:29;;;;;;;1.00;0.55;;;;;;;;;;5029072;28;20025;-91
2022/07/18 12:11:20;;;;;;;0.98;0.52;;;;;;;;;;5042801;28;20317;-91
2022/07/18 12:13:48;;;;;;;1.00;0.70;;;;;;;;;;5065743;28;20466;-86
2022/07/18 12:16:24;;;;;;;0.30;0.30;;;;;;;;;;5062782;28;20052;-89
2022/07/18 12:18:54;;;;;;;0.47;0.45;;;;;;;;;;5062867;28;20032;-93
2022/07/18 12:21:20;;;;;;;2.55;0.85;;;;;;;;;;5064655;28;20060;-95
2022/07/18 12:23:46;;;;;;;0.40;0.40;;;;;;;;;;5058851;28;20389;-91
2022/07/18 12:26:45;;;;;;;0.40;0.40;;;;;;;;;;5061688;28;20033;-94
2022/07/18 12:29:13;;;;;;;0.40;0.40;;;;;;;;;;5062464;28;20025;-94
2022/07/18 12:31:59;;;;;;;1.85;0.50;;;;;;;;;;5061202;28;20028;-91
2022/07/18 12:35:03;;;;;;;0.47;0.47;;;;;;;;;;4987249;28;20046;-93
2022/07/18 12:37:29;;;;;;;0.70;0.70;;;;;;;;;;5008802;28;20723;-90
2022/07/18 12:40:03;;;;;;;0.60;0.60;;;;;;;;;;5010465;28;20054;-89
2022/07/18 12:42:32;;;;;;;0.55;0.55;;;;;;;;;;4998954;28;20034;-91
2022/07/18 12:44:59;;;;;;;0.60;0.60;;;;;;;;;;4995509;28;20038;-93
2022/07/18 12:47:25;;;;;;;1.02;0.93;;;;;;;;;;4936441;29;20058;-93
2022/07/18 12:49:50;;;;;;;0.55;0.55;;;;;;;;;;4937311;29;20040;-89
2022/07/18 12:52:19;;;;;;;0.50;0.50;;;;;;;;;;4936844;29;20048;-91
2022/07/18 12:54:50;;;;;;;0.50;0.50;;;;;;;;;;4920463;29;20382;-91
2022/07/18 12:57:16;;;;;;;0.35;0.35;;;;;;;;;;4921545;29;20529;-92
2022/07/18 12:59:41;;;;;;;0.57;0.52;;;;;;;;;;4937248;29;20050;-91
2022/07/18 13:02:10;;;;;;;0.30;0.30;;;;;;;;;;4921652;29;20039;-91
2022/07/18 13:04:36;;;;;;;0.40;0.40;;;;;;;;;;4936724;29;20194;-89
2022/07/18 13:07:04;;;;;;;0.55;0.50;;;;;;;;;;4936951;29;20139;-92
2022/07/18 13:09:29;;;;;;;0.95;0.52;;;;;;;;;;4918135;29;20032;-89
2022/07/18 13:11:58;;;;;;;0.30;0.30;;;;;;;;;;4983999;28;20053;-91
2022/07/18 13:14:24;;;;;;;0.50;0.40;;;;;;;;;;5014627;28;20091;-90
2022/07/18 13:16:52;;;;;;;0.40;0.40;;;;;;;;;;5014371;28;20030;-91
2022/07/18 13:19:17;;;;;;;0.20;0.20;;;;;;;;;;5051329;28;20033;-92
2022/07/18 13:21:45;;;;;;;0.65;0.65;;;;;;;;;;5055806;28;20027;-92
2022/07/18 13:24:10;;;;;;;0.32;0.32;;;;;;;;;;5017025;28;20686;-92
2022/07/18 13:26:36;;;;;;;1.38;0.75;;;;;;;;;;5035859;28;20108;-91
2022/07/18 13:29:06;;;;;;;0.30;0.30;;;;;;;;;;5035102;28;20439;-91
2022/07/18 13:31:34;;;;;;;0.73;0.60;;;;;;;;;;5018915;28;20032;-92
2022/07/18 13:34:02;;;;;;;0.30;0.30;;;;;;;;;;5034798;28;20021;-93
2022/07/18 13:36:29;;;;;;;0.47;0.47;;;;;;;;;;5035446;28;20033;-94
2022/07/18 13:38:56;;;;;;;0.20;0.20;;;;;;;;;;5053762;28;20024;-88
2022/07/18 13:41:23;;;;;;;0.38;0.38;;;;;;;;;;5054159;28;20029;-91
2022/07/18 13:43:49;;;;;;;0.40;0.40;;;;;;;;;;5054373;28;20025;-92
2022/07/18 13:46:18;;;;;;;0.30;0.30;;;;;;;;;;5054359;28;20035;-90
2022/07/18 13:48:43;;;;;;;8.68;1.02;;;;;;;;;;5055520;28;20040;-92
2022/07/18 13:51:09;;;;;;;0.43;0.43;;;;;;;;;;5054799;28;20108;-90
2022/07/18 13:53:37;;;;;;;1.02;0.45;;;;;;;;;;5053841;28;20040;-92
2022/07/18 13:56:02;;;;;;;0.85;0.57;;;;;;;;;;5054323;28;20103;-94
2022/07/18 13:58:30;;;;;;;0.30;0.30;;;;;;;;;;5054556;28;20029;-92
2022/07/18 14:00:55;;;;;;;1.17;0.30;;;;;;;;;;5055359;28;20024;-90
2022/07/18 14:03:21;;;;;;;0.20;0.20;;;;;;;;;;5071343;28;20108;-90
2022/07/18 14:05:46;;;;;;;0.57;0.50;;;;;;;;;;5055441;28;20102;-92
2022/07/18 14:08:11;;;;;;;1.00;0.50;;;;;;;;;;5070466;28;20087;-92
2022/07/18 14:10:39;;;;;;;0.45;0.45;;;;;;;;;;5055678;28;20032;-90
2022/07/18 14:13:07;;;;;;;0.40;0.22;;;;;;;;;;5054508;28;20338;-91
2022/07/18 14:15:32;;;;;;;2.90;1.00;;;;;;;;;;5037775;28;20021;-88
2022/07/18 14:17:58;;;;;;;0.25;0.25;;;;;;;;;;5056924;28;20536;-92
2022/07/18 14:20:23;;;;;;;0.43;0.40;;;;;;;;;;5057586;28;20017;-90
2022/07/18 14:22:49;;;;;;;1.05;0.50;;;;;;;;;;5038274;28;20021;-90
2022/07/18 14:25:17;;;;;;;0.80;0.43;;;;;;;;;;5055609;28;20394;-90
2022/07/18 14:27:45;;;;;;;0.45;0.40;;;;;;;;;;5055253;28;20032;-90
2022/07/18 14:30:15;;;;;;;0.63;0.40;;;;;;;;;;5058119;28;20032;-89
2022/07/18 14:32:44;;;;;;;0.20;0.20;;;;;;;;;;5057960;28;20029;-89
2022/07/18 14:35:12;;;;;;;0.65;0.38;;;;;;;;;;5055510;28;20025;-92
2022/07/18 14:37:40;;;;;;;0.63;0.57;;;;;;;;;;5038752;28;20357;-89
2022/07/18 14:40:08;;;;;;;1.75;0.47;;;;;;;;;;5018877;28;20033;-88
2022/07/18 14:42:33;;;;;;;0.43;0.43;;;;;;;;;;5035042;28;20037;-90
2022/07/18 14:45:02;;;;;;;1.20;0.40;;;;;;;;;;5035806;28;20041;-92
2022/07/18 14:47:31;;;;;;;0.47;0.40;;;;;;;;;;5003593;28;20057;-90
2022/07/18 14:50:00;;;;;;;1.05;0.57;;;;;;;;;;5015456;28;20111;-92
2022/07/18 14:52:27;;;;;;;0.65;0.55;;;;;;;;;;5013769;28;20360;-83
2022/07/18 14:54:52;;;;;;;1.95;0.73;;;;;;;;;;5013825;28;20030;-91
2022/07/18 14:57:18;;;;;;;0.60;0.22;;;;;;;;;;5013383;28;20368;-88
2022/07/18 14:59:44;;;;;;;0.70;0.70;;;;;;;;;;4996797;28;20033;-92
2022/07/18 15:02:10;;;;;;;1.20;0.57;;;;;;;;;;5015791;28;20420;-89